createdAt,value
2022-10-19T00:02:37.072Z,46.07
2022-10-19T00:05:22.850Z,46.68
2022-10-19T00:08:08.595Z,46.53
2022-10-19T00:10:54.415Z,45.25
2022-10-19T00:13:40.336Z,44.76
2022-10-19T00:16:26.174Z,45.36
2022-10-19T00:19:11.948Z,46.27
2022-10-19T00:21:57.734Z,46.19
2022-10-19T00:24:43.605Z,46.56
2022-10-19T00:27:29.390Z,46.10
2022-10-19T00:30:15.240Z,46.08
2022-10-19T00:33:01.125Z,46.13
2022-10-19T00:35:46.856Z,45.00
2022-10-19T00:38:32.752Z,45.39
2022-10-19T00:41:18.674Z,45.95
2022-10-19T00:44:04.544Z,46.14
2022-10-19T00:46:50.399Z,46.81
2022-10-19T00:49:36.182Z,46.68
2022-10-19T00:52:22.095Z,45.86
2022-10-19T00:55:07.797Z,45.32
2022-10-19T00:57:53.608Z,45.90
2022-10-19T01:00:39.409Z,45.85
2022-10-19T01:03:25.250Z,46.41
2022-10-19T01:06:11.031Z,47.03
2022-10-19T01:08:56.972Z,47.10
2022-10-19T01:11:42.861Z,46.94
2022-10-19T01:14:28.809Z,47.61
2022-10-19T01:17:14.706Z,47.38
2022-10-19T01:20:00.585Z,47.67
2022-10-19T01:22:46.757Z,47.62
2022-10-19T01:25:32.592Z,46.78
2022-10-19T01:28:18.492Z,46.00
2022-10-19T01:31:04.445Z,46.06
2022-10-19T01:33:50.289Z,46.38
2022-10-19T01:36:36.349Z,46.38
2022-10-19T01:39:22.263Z,46.15
2022-10-19T01:42:08.173Z,46.13
2022-10-19T01:44:54.213Z,46.45
2022-10-19T01:47:40.100Z,47.13
2022-10-19T01:50:25.902Z,46.60
2022-10-19T01:53:11.744Z,47.04
2022-10-19T01:55:57.655Z,47.16
2022-10-19T01:58:45.509Z,47.33
2022-10-19T02:01:31.431Z,47.22
2022-10-19T02:04:17.277Z,47.12
2022-10-19T02:07:03.118Z,47.28
2022-10-19T02:09:48.899Z,46.51
2022-10-19T02:12:34.998Z,45.47
2022-10-19T02:15:21.465Z,46.01
2022-10-19T02:18:07.491Z,45.61
2022-10-19T02:20:53.271Z,45.20
2022-10-19T02:23:39.248Z,45.48
2022-10-19T02:26:25.042Z,44.92
2022-10-19T02:29:10.920Z,44.54
2022-10-19T02:31:56.794Z,44.18
2022-10-19T02:34:42.625Z,44.58
2022-10-19T02:37:28.452Z,44.37
2022-10-19T02:40:14.220Z,43.78
2022-10-19T02:43:00.077Z,43.59
2022-10-19T02:45:48.160Z,44.09
2022-10-19T02:48:36.047Z,44.48
2022-10-19T02:51:21.935Z,44.58
2022-10-19T02:54:07.835Z,44.79
2022-10-19T02:56:53.615Z,45.03
2022-10-19T02:59:39.387Z,45.54
2022-10-19T03:02:25.310Z,45.79
2022-10-19T03:05:11.103Z,45.86
2022-10-19T03:07:57.087Z,46.27
2022-10-19T03:10:42.799Z,46.72
2022-10-19T03:13:28.766Z,46.36
2022-10-19T03:16:14.681Z,46.48
2022-10-19T03:19:00.655Z,46.82
2022-10-19T03:21:46.401Z,46.48
2022-10-19T03:24:32.302Z,46.71
2022-10-19T03:27:18.169Z,46.36
2022-10-19T03:30:04.016Z,46.47
2022-10-19T03:32:49.771Z,46.46
2022-10-19T03:35:35.652Z,46.94
2022-10-19T03:38:21.547Z,47.32
2022-10-19T03:41:07.231Z,47.41
2022-10-19T03:43:53.127Z,47.71
2022-10-19T03:46:38.985Z,47.74
2022-10-19T03:49:24.856Z,47.69
2022-10-19T03:52:10.882Z,48.02
2022-10-19T03:54:56.623Z,48.09
2022-10-19T03:57:42.443Z,47.71
2022-10-19T04:00:28.269Z,47.28
2022-10-19T04:03:14.112Z,47.07
2022-10-19T04:06:00.068Z,47.71
2022-10-19T04:08:45.788Z,46.91
2022-10-19T04:11:31.629Z,47.87
2022-10-19T04:14:45.767Z,48.59
2022-10-19T04:17:45.638Z,48.63
2022-10-19T04:20:34.008Z,48.47
2022-10-19T04:23:19.799Z,49.21
2022-10-19T04:26:05.720Z,48.66
2022-10-19T04:28:51.604Z,48.30
2022-10-19T04:31:37.677Z,48.33
2022-10-19T04:34:23.526Z,48.33
2022-10-19T04:37:09.353Z,47.83
2022-10-19T04:39:55.241Z,47.95
2022-10-19T04:42:41.175Z,48.16
2022-10-19T04:45:26.908Z,48.38
2022-10-19T04:48:15.027Z,48.26
2022-10-19T04:51:01.288Z,48.62
2022-10-19T04:53:46.912Z,48.35
2022-10-19T04:56:32.856Z,48.49
2022-10-19T04:59:20.696Z,48.61
2022-10-19T05:02:06.621Z,48.83
2022-10-19T05:04:52.559Z,48.49
2022-10-19T05:07:38.478Z,47.89
2022-10-19T05:10:24.357Z,47.82
2022-10-19T05:13:10.484Z,47.10
2022-10-19T05:15:56.226Z,46.92
2022-10-19T05:18:42.167Z,46.62
2022-10-19T05:21:27.946Z,46.56
2022-10-19T05:24:13.672Z,46.82
2022-10-19T05:26:59.543Z,46.97
2022-10-19T05:29:45.325Z,47.59
2022-10-19T05:32:31.227Z,47.67
2022-10-19T05:35:22.358Z,46.50
2022-10-19T05:38:08.643Z,45.81
2022-10-19T05:40:54.343Z,47.02
2022-10-19T05:43:40.237Z,46.25
2022-10-19T05:46:26.008Z,49.95
2022-10-19T05:49:11.831Z,50.95
2022-10-19T05:51:57.703Z,51.03
2022-10-19T05:54:43.455Z,50.77
2022-10-19T05:57:29.407Z,50.18
2022-10-19T06:00:15.304Z,48.58
2022-10-19T06:03:01.200Z,48.47
2022-10-19T06:05:47.039Z,47.18
2022-10-19T06:08:32.724Z,47.44
2022-10-19T06:11:18.681Z,48.80
2022-10-19T06:14:04.401Z,49.27
2022-10-19T06:16:50.169Z,49.20
2022-10-19T06:19:35.953Z,48.75
2022-10-19T06:22:21.646Z,47.67
2022-10-19T06:25:07.537Z,48.32
2022-10-19T06:27:53.379Z,48.93
2022-10-19T06:30:39.382Z,49.26
2022-10-19T06:33:25.185Z,49.77
2022-10-19T06:36:11.031Z,49.60
2022-10-19T06:38:56.888Z,49.46
2022-10-19T06:41:42.925Z,50.01
2022-10-19T06:44:28.629Z,50.85
2022-10-19T06:47:14.570Z,51.29
2022-10-19T06:50:00.407Z,51.06
2022-10-19T06:52:46.085Z,50.56
2022-10-19T06:55:31.830Z,50.17
2022-10-19T06:58:17.731Z,48.96
2022-10-19T07:01:03.764Z,49.87
2022-10-19T07:03:50.113Z,49.56
2022-10-19T07:06:35.832Z,49.42
2022-10-19T07:09:21.760Z,49.91
2022-10-19T07:12:07.612Z,50.04
2022-10-19T07:14:53.487Z,50.44
2022-10-19T07:17:39.455Z,49.66
2022-10-19T07:20:25.213Z,49.66
2022-10-19T07:23:11.226Z,50.39
2022-10-19T07:25:57.062Z,50.68
2022-10-19T07:28:44.853Z,50.41
2022-10-19T07:31:30.766Z,49.83
2022-10-19T07:34:16.606Z,49.87
2022-10-19T07:37:02.525Z,50.50
2022-10-19T07:39:48.368Z,49.35
2022-10-19T07:42:34.286Z,49.92
2022-10-19T07:45:20.317Z,49.35
2022-10-19T07:48:06.248Z,49.21
2022-10-19T07:50:52.044Z,48.62
2022-10-19T07:53:38.201Z,48.35
2022-10-19T07:56:24.151Z,48.86
2022-10-19T07:59:10.003Z,47.95
2022-10-19T08:01:55.973Z,48.71
2022-10-19T08:05:00.280Z,48.27
2022-10-19T08:07:47.821Z,47.96
2022-10-19T08:10:33.737Z,49.48
2022-10-19T08:13:19.664Z,49.95
2022-10-19T08:16:05.562Z,50.75
2022-10-19T08:18:51.547Z,52.02
2022-10-19T08:21:37.427Z,54.60
2022-10-19T08:24:23.545Z,55.43
2022-10-19T08:27:09.567Z,53.28
2022-10-19T08:29:55.384Z,52.00
2022-10-19T08:32:41.247Z,51.45
2022-10-19T08:35:27.183Z,52.83
2022-10-19T08:38:13.001Z,53.10
2022-10-19T08:40:58.949Z,52.96
2022-10-19T08:43:44.746Z,53.14
2022-10-19T08:46:30.725Z,53.38
2022-10-19T08:49:16.675Z,52.36
2022-10-19T08:52:02.434Z,52.16
2022-10-19T08:54:48.185Z,54.90
2022-10-19T08:57:34.201Z,59.68
2022-10-19T09:00:20.457Z,63.93
2022-10-19T09:03:06.438Z,62.70
2022-10-19T09:05:52.163Z,66.78
2022-10-19T09:08:38.051Z,67.18
2022-10-19T09:11:24.006Z,67.80
2022-10-19T09:14:09.807Z,69.70
2022-10-19T09:16:55.730Z,70.21
2022-10-19T09:19:41.658Z,75.29
2022-10-19T09:22:27.439Z,73.12
2022-10-19T09:25:13.435Z,70.44
2022-10-19T09:27:59.315Z,68.59
2022-10-19T09:30:45.250Z,77.32
2022-10-19T09:33:31.106Z,83.21
2022-10-19T09:36:22.636Z,79.64
2022-10-19T09:39:13.797Z,80.34
2022-10-19T09:41:59.718Z,82.15
2022-10-19T09:44:47.629Z,80.69
2022-10-19T09:47:33.903Z,79.24
2022-10-19T09:50:22.000Z,84.47
2022-10-19T09:53:07.923Z,86.89
2022-10-19T09:55:53.859Z,89.37
2022-10-19T09:58:39.878Z,92.56
2022-10-19T10:01:29.615Z,91.31
2022-10-19T10:04:19.438Z,90.27
2022-10-19T10:07:05.203Z,90.99
2022-10-19T10:09:51.190Z,89.27
2022-10-19T10:12:37.238Z,88.03
2022-10-19T10:15:23.010Z,81.78
2022-10-19T10:18:08.776Z,81.24
2022-10-19T10:20:54.713Z,82.23
2022-10-19T10:23:40.690Z,84.46
2022-10-19T10:26:26.925Z,83.30
2022-10-19T10:29:12.900Z,78.78
2022-10-19T10:31:58.839Z,78.84
2022-10-19T10:34:51.820Z,78.74
2022-10-19T10:37:38.901Z,76.68
2022-10-19T10:40:26.812Z,77.79
2022-10-19T10:43:12.657Z,78.24
2022-10-19T10:45:58.633Z,84.45
2022-10-19T10:48:44.493Z,83.20
2022-10-19T10:51:30.333Z,83.11
2022-10-19T10:54:16.431Z,84.44
2022-10-19T10:57:05.600Z,87.86
2022-10-19T10:59:52.779Z,90.96
2022-10-19T11:02:38.653Z,91.99
2022-10-19T11:05:26.347Z,93.12
2022-10-19T11:08:12.303Z,93.27
2022-10-19T11:10:58.416Z,92.23
2022-10-19T11:13:44.270Z,88.83
2022-10-19T11:16:30.126Z,82.02
2022-10-19T11:19:16.530Z,77.71
2022-10-19T11:22:02.392Z,74.12
2022-10-19T11:24:48.773Z,76.52
2022-10-19T11:27:35.243Z,76.77
2022-10-19T11:30:21.279Z,76.97
2022-10-19T11:33:07.326Z,74.21
2022-10-19T11:35:55.246Z,73.49
2022-10-19T11:38:41.068Z,78.36
2022-10-19T11:41:26.998Z,84.71
2022-10-19T11:44:14.935Z,83.12
2022-10-19T11:47:00.874Z,86.87
2022-10-19T11:49:46.829Z,86.45
2022-10-19T11:52:33.042Z,89.60
2022-10-19T11:55:19.172Z,90.64
2022-10-19T11:58:05.091Z,92.50
2022-10-19T12:00:50.842Z,88.55
2022-10-19T12:03:36.621Z,84.60
2022-10-19T12:06:22.569Z,79.77
2022-10-19T12:09:08.425Z,77.21
2022-10-19T12:11:54.443Z,77.24
2022-10-19T12:14:40.231Z,76.81
2022-10-19T12:17:26.208Z,82.51
2022-10-19T12:20:14.886Z,82.69
2022-10-19T12:23:03.422Z,83.52
2022-10-19T12:25:49.187Z,83.52
2022-10-19T12:28:35.116Z,84.39
2022-10-19T12:31:20.964Z,85.22
2022-10-19T12:34:06.758Z,79.82
2022-10-19T12:36:52.705Z,83.22
2022-10-19T12:39:38.493Z,73.25
2022-10-19T12:42:24.367Z,73.76
2022-10-19T12:45:10.212Z,72.85
2022-10-19T12:47:58.099Z,71.68
2022-10-19T12:50:43.938Z,66.78
2022-10-19T12:53:29.826Z,67.96
2022-10-19T12:56:15.679Z,70.71
2022-10-19T12:59:01.782Z,70.44
2022-10-19T13:01:47.813Z,69.60
2022-10-19T13:04:33.964Z,73.70
2022-10-19T13:07:20.284Z,77.36
2022-10-19T13:10:06.048Z,79.42
2022-10-19T13:12:52.044Z,79.09
2022-10-19T13:15:37.953Z,79.55
2022-10-19T13:18:23.873Z,77.38
2022-10-19T13:21:10.135Z,83.13
2022-10-19T13:23:56.237Z,81.69
2022-10-19T13:26:42.325Z,83.26
2022-10-19T13:29:28.312Z,82.88
2022-10-19T13:32:14.195Z,82.39
2022-10-19T13:35:00.197Z,83.51
2022-10-19T13:37:46.071Z,84.13
2022-10-19T13:40:32.007Z,84.13
2022-10-19T13:43:17.883Z,82.82
2022-10-19T13:46:03.621Z,81.11
2022-10-19T13:48:49.539Z,80.22
2022-10-19T13:51:35.489Z,80.32
2022-10-19T13:54:21.461Z,85.40
2022-10-19T13:57:07.440Z,84.78
2022-10-19T13:59:53.349Z,83.44
2022-10-19T14:02:39.184Z,80.85
2022-10-19T14:05:25.114Z,79.56
2022-10-19T14:08:10.966Z,78.71
2022-10-19T14:11:00.996Z,75.88
2022-10-19T14:13:47.548Z,78.86
2022-10-19T14:16:33.237Z,80.80
2022-10-19T14:19:19.062Z,75.93
2022-10-19T14:22:05.008Z,79.20
2022-10-19T14:24:50.831Z,78.78
2022-10-19T14:27:36.948Z,82.20
2022-10-19T14:30:23.230Z,79.92
2022-10-19T14:33:08.884Z,71.46
2022-10-19T14:35:54.671Z,67.98
2022-10-19T14:38:40.538Z,69.08
2022-10-19T14:41:26.522Z,70.10
2022-10-19T14:44:12.468Z,71.79
2022-10-19T14:46:58.330Z,70.05
2022-10-19T14:49:44.241Z,70.71
2022-10-19T14:52:30.224Z,71.72
2022-10-19T14:55:17.857Z,71.00
2022-10-19T14:58:03.983Z,68.77
2022-10-19T15:00:49.869Z,67.90
2022-10-19T15:03:38.110Z,66.25
2022-10-19T15:06:27.397Z,66.71
2022-10-19T15:09:24.489Z,64.22
2022-10-19T15:12:19.312Z,62.98
2022-10-19T15:15:05.186Z,60.20
2022-10-19T15:17:51.073Z,61.75
2022-10-19T15:20:44.245Z,66.86
2022-10-19T15:23:35.086Z,71.93
2022-10-19T15:26:22.901Z,76.10
2022-10-19T15:29:08.665Z,78.78
2022-10-19T15:31:54.735Z,79.98
2022-10-19T15:34:40.483Z,78.64
2022-10-19T15:40:17.440Z,83.77
2022-10-19T15:43:03.335Z,80.74
2022-10-19T15:45:49.125Z,74.63
2022-10-19T15:48:35.055Z,74.19
2022-10-19T15:51:21.886Z,71.93
2022-10-19T15:54:07.763Z,72.08
2022-10-19T15:56:53.735Z,74.52
2022-10-19T15:59:39.797Z,77.49
2022-10-19T16:02:25.652Z,77.50
2022-10-19T16:05:11.700Z,74.31
2022-10-19T16:07:57.860Z,70.55
2022-10-19T16:10:43.651Z,70.89
2022-10-19T16:13:29.485Z,72.23
2022-10-19T16:16:15.290Z,68.65
2022-10-19T16:19:01.149Z,65.99
2022-10-19T16:21:50.249Z,65.42
2022-10-19T16:24:36.504Z,68.46
2022-10-19T16:27:22.375Z,70.13
2022-10-19T16:30:08.276Z,73.69
2022-10-19T16:32:54.217Z,78.12
2022-10-19T16:35:40.077Z,80.98
2022-10-19T16:38:25.898Z,84.28
2022-10-19T16:41:11.739Z,87.41
2022-10-19T16:43:57.642Z,90.55
2022-10-19T16:46:43.439Z,93.09
2022-10-19T16:49:29.497Z,93.17
2022-10-19T16:52:15.309Z,88.84
2022-10-19T16:55:01.225Z,82.94
2022-10-19T16:57:47.138Z,77.78
2022-10-19T17:00:33.165Z,76.20
2022-10-19T17:03:18.855Z,73.02
2022-10-19T17:06:04.560Z,69.33
2022-10-19T17:09:23.603Z,72.29
2022-10-19T17:11:56.545Z,85.47
2022-10-19T17:14:42.462Z,89.99
2022-10-19T17:17:28.301Z,90.61
2022-10-19T17:20:14.449Z,93.88
2022-10-19T17:23:00.361Z,93.88
2022-10-19T17:25:48.107Z,96.19
2022-10-19T17:28:34.001Z,99.47
2022-10-19T17:31:19.919Z,100.00
2022-10-19T17:34:05.881Z,100.00
2022-10-19T17:36:51.768Z,100.00
2022-10-19T17:39:37.609Z,100.00
2022-10-19T17:42:25.469Z,100.00
2022-10-19T17:45:11.484Z,100.00
2022-10-19T17:47:57.297Z,100.00
2022-10-19T17:50:43.230Z,100.00
2022-10-19T17:53:29.251Z,100.00
2022-10-19T17:56:15.098Z,100.00
2022-10-19T17:59:01.090Z,100.00
2022-10-19T18:01:46.925Z,100.00
2022-10-19T18:04:33.132Z,99.07
2022-10-19T18:07:19.109Z,96.95
2022-10-19T18:10:06.952Z,100.00
2022-10-19T18:12:52.965Z,100.00
2022-10-19T18:15:38.879Z,100.00
2022-10-19T18:18:24.786Z,100.00
2022-10-19T18:21:10.741Z,100.00
2022-10-19T18:23:56.793Z,100.00
2022-10-19T18:26:42.739Z,100.00
2022-10-19T18:29:28.580Z,100.00
2022-10-19T18:32:14.372Z,100.00
2022-10-19T18:35:00.270Z,100.00
2022-10-19T18:37:46.149Z,100.00
2022-10-19T18:40:32.035Z,100.00
2022-10-19T18:43:17.877Z,100.00
2022-10-19T18:46:03.703Z,100.00
2022-10-19T18:48:49.518Z,100.00
2022-10-19T18:51:35.446Z,100.00
2022-10-19T18:54:21.254Z,100.00
2022-10-19T18:57:07.203Z,100.00
2022-10-19T18:59:55.169Z,100.00
2022-10-19T19:02:46.771Z,100.00
2022-10-19T19:05:33.124Z,100.00
2022-10-19T19:08:18.971Z,100.00
2022-10-19T19:11:04.863Z,100.00
2022-10-19T19:13:50.790Z,100.00
2022-10-19T19:16:36.741Z,100.00
2022-10-19T19:19:22.530Z,100.00
2022-10-19T19:22:08.841Z,100.00
2022-10-19T19:24:54.951Z,100.00
2022-10-19T19:27:40.802Z,100.00
2022-10-19T19:30:26.809Z,100.00
2022-10-19T19:33:14.659Z,100.00
2022-10-19T19:36:00.548Z,100.00
2022-10-19T19:38:46.460Z,100.00
2022-10-19T19:41:32.259Z,100.00
2022-10-19T19:44:18.162Z,100.00
2022-10-19T19:47:04.137Z,100.00
2022-10-19T19:49:49.999Z,100.00
2022-10-19T19:52:40.243Z,100.00
2022-10-19T19:55:26.506Z,100.00
2022-10-19T19:58:12.476Z,100.00
2022-10-19T20:00:58.286Z,100.00
2022-10-19T20:03:44.192Z,100.00
2022-10-19T20:06:29.981Z,100.00
2022-10-19T20:09:15.856Z,100.00
2022-10-19T20:12:01.735Z,99.28
2022-10-19T20:14:47.766Z,100.00
2022-10-19T20:17:33.834Z,100.00
2022-10-19T20:20:19.904Z,100.00
2022-10-19T20:23:05.738Z,100.00
2022-10-19T20:25:51.663Z,100.00
2022-10-19T20:28:37.480Z,100.00
2022-10-19T20:31:23.287Z,100.00
2022-10-19T20:34:09.332Z,100.00
2022-10-19T20:36:55.174Z,100.00
2022-10-19T20:39:41.115Z,100.00
2022-10-19T20:42:26.922Z,100.00
2022-10-19T20:45:12.808Z,100.00
2022-10-19T20:47:58.703Z,100.00
2022-10-19T20:50:44.659Z,100.00
2022-10-19T20:53:30.478Z,100.00
2022-10-19T20:56:16.401Z,100.00
2022-10-19T21:01:49.218Z,100.00
2022-10-19T21:04:35.165Z,100.00
2022-10-19T21:07:21.182Z,100.00
2022-10-19T21:10:06.991Z,100.00
2022-10-19T21:12:52.871Z,100.00
2022-10-19T21:15:38.653Z,100.00
2022-10-19T21:18:24.583Z,100.00
2022-10-19T21:21:10.440Z,100.00
2022-10-19T21:23:56.399Z,100.00
2022-10-19T21:26:42.161Z,100.00
2022-10-19T21:29:28.009Z,100.00
2022-10-19T21:32:13.978Z,100.00
2022-10-19T21:34:59.811Z,100.00
2022-10-19T21:37:45.772Z,100.00
2022-10-19T21:40:31.573Z,98.02
2022-10-19T21:43:17.295Z,100.00
2022-10-19T21:46:03.141Z,100.00
2022-10-19T21:48:48.975Z,100.00
2022-10-19T21:51:34.799Z,97.61
2022-10-19T21:54:20.628Z,97.69
2022-10-19T21:57:06.575Z,100.00
2022-10-19T21:59:52.538Z,100.00
2022-10-19T22:02:38.358Z,98.99
2022-10-19T22:05:24.171Z,99.50
2022-10-19T22:08:12.014Z,99.62
2022-10-19T22:10:57.804Z,99.41
2022-10-19T22:13:43.794Z,96.08
2022-10-19T22:16:29.594Z,93.24
2022-10-19T22:19:15.355Z,96.45
2022-10-19T22:22:01.295Z,96.00
2022-10-19T22:24:47.011Z,96.16
2022-10-19T22:27:32.895Z,94.73
2022-10-19T22:30:18.965Z,91.04
2022-10-19T22:33:04.782Z,89.06
2022-10-19T22:35:50.637Z,87.17
2022-10-19T22:38:36.472Z,85.38
2022-10-19T22:41:22.414Z,82.85
2022-10-19T22:44:08.470Z,84.56
2022-10-19T22:46:54.259Z,85.44
2022-10-19T22:49:40.167Z,84.05
2022-10-19T22:52:26.025Z,83.61
2022-10-19T22:55:11.829Z,80.47
2022-10-19T22:57:57.791Z,77.53
2022-10-19T23:00:43.783Z,75.48
2022-10-19T23:03:31.565Z,73.28
2022-10-19T23:06:17.510Z,71.71
2022-10-19T23:09:03.419Z,70.30
2022-10-19T23:11:49.283Z,70.49
2022-10-19T23:14:35.197Z,68.00
2022-10-19T23:17:23.035Z,66.15
2022-10-19T23:20:08.920Z,65.79
2022-10-19T23:22:54.880Z,64.80
2022-10-19T23:25:40.570Z,64.29
2022-10-19T23:28:26.468Z,64.17
2022-10-19T23:31:12.241Z,63.63
2022-10-19T23:33:58.191Z,63.77
2022-10-19T23:36:44.100Z,64.00
2022-10-19T23:39:29.836Z,68.02
2022-10-19T23:42:16.888Z,71.75
2022-10-19T23:45:03.069Z,80.17
2022-10-19T23:47:48.819Z,80.17
2022-10-19T23:50:34.793Z,81.49
2022-10-19T23:53:21.726Z,85.07
2022-10-19T23:56:07.492Z,87.22
2022-10-19T23:58:53.331Z,85.18
